createdAt,value
2023-04-17T00:01:49.244Z,99.90
2023-04-17T00:04:22.278Z,99.90
2023-04-17T00:06:53.970Z,99.90
2023-04-17T00:09:22.240Z,1.00
2023-04-17T00:11:50.500Z,99.90
2023-04-17T00:14:18.759Z,1.00
2023-04-17T00:16:47.121Z,1.00
2023-04-17T00:19:15.548Z,1.00
2023-04-17T00:21:43.819Z,1.00
2023-04-17T00:24:13.862Z,1.00
2023-04-17T00:26:42.190Z,1.00
2023-04-17T00:29:10.616Z,1.00
2023-04-17T00:31:38.994Z,1.00
2023-04-17T00:34:07.927Z,1.00
2023-04-17T00:36:36.581Z,1.00
2023-04-17T00:39:04.906Z,1.00
2023-04-17T00:41:34.678Z,1.00
2023-04-17T00:44:02.922Z,1.00
2023-04-17T00:46:31.896Z,1.00
2023-04-17T00:49:01.052Z,1.00
2023-04-17T00:51:29.495Z,1.00
2023-04-17T00:53:57.894Z,1.00
2023-04-17T00:56:26.640Z,1.00
2023-04-17T00:58:57.426Z,1.00
2023-04-17T01:01:26.095Z,1.00
2023-04-17T01:03:55.115Z,1.00
2023-04-17T01:06:23.773Z,1.00
2023-04-17T01:08:52.189Z,1.00
2023-04-17T01:11:20.453Z,1.00
2023-04-17T01:13:49.470Z,1.00
2023-04-17T01:16:21.260Z,1.00
2023-04-17T01:18:49.671Z,1.00
2023-04-17T01:21:18.098Z,1.00
2023-04-17T01:23:49.985Z,1.00
2023-04-17T01:26:21.076Z,1.00
2023-04-17T01:28:54.405Z,1.00
2023-04-17T01:31:23.221Z,1.00
2023-04-17T01:33:52.928Z,1.00
2023-04-17T01:36:21.549Z,1.00
2023-04-17T01:38:49.783Z,1.00
2023-04-17T01:41:19.411Z,1.00
2023-04-17T01:43:48.456Z,1.00
2023-04-17T01:46:16.755Z,1.00
2023-04-17T01:48:45.066Z,1.00
2023-04-17T01:51:13.349Z,1.00
2023-04-17T01:53:41.528Z,1.00
2023-04-17T01:56:09.913Z,1.00
2023-04-17T01:58:39.554Z,1.00
2023-04-17T02:01:07.935Z,1.00
2023-04-17T02:03:36.412Z,1.00
2023-04-17T02:06:05.022Z,1.00
2023-04-17T02:08:33.805Z,1.00
2023-04-17T02:11:04.279Z,1.00
2023-04-17T02:13:32.732Z,1.00
2023-04-17T02:16:02.407Z,1.00
2023-04-17T02:18:31.071Z,1.00
2023-04-17T02:21:01.806Z,1.00
2023-04-17T02:23:30.332Z,1.00
2023-04-17T02:26:00.546Z,1.00
2023-04-17T02:28:28.728Z,1.00
2023-04-17T02:30:57.081Z,1.00
2023-04-17T02:33:27.190Z,1.00
2023-04-17T02:35:55.481Z,1.00
2023-04-17T02:38:30.491Z,1.00
2023-04-17T02:40:58.811Z,1.00
2023-04-17T02:43:29.095Z,1.00
2023-04-17T02:45:57.812Z,1.00
2023-04-17T02:48:29.052Z,1.00
2023-04-17T02:50:57.722Z,1.00
2023-04-17T02:53:26.097Z,1.00
2023-04-17T02:55:54.435Z,1.00
2023-04-17T02:58:25.099Z,1.00
2023-04-17T03:00:53.506Z,1.00
2023-04-17T03:03:22.010Z,1.00
2023-04-17T03:05:51.729Z,1.00
2023-04-17T03:08:20.196Z,1.00
2023-04-17T03:10:50.825Z,1.00
2023-04-17T03:13:19.156Z,1.00
2023-04-17T03:15:47.923Z,1.00
2023-04-17T03:18:16.302Z,13.70
2023-04-17T03:20:44.555Z,32.30
2023-04-17T03:23:14.089Z,50.80
2023-04-17T03:25:43.977Z,70.80
2023-04-17T03:28:12.437Z,88.70
2023-04-17T03:30:40.840Z,96.50
2023-04-17T03:33:10.224Z,99.90
2023-04-17T03:35:38.549Z,99.90
2023-04-17T03:38:09.569Z,99.90
2023-04-17T03:40:39.357Z,99.90
2023-04-17T03:43:07.835Z,99.90
2023-04-17T03:45:37.181Z,99.90
2023-04-17T03:48:06.034Z,99.90
2023-04-17T03:50:35.381Z,99.90
2023-04-17T03:53:03.633Z,99.90
2023-04-17T03:55:33.143Z,99.90
2023-04-17T03:58:02.748Z,96.80
2023-04-17T04:00:33.060Z,97.20
2023-04-17T04:03:08.052Z,92.00
2023-04-17T04:05:41.070Z,61.20
2023-04-17T04:08:10.978Z,49.20
2023-04-17T04:10:48.956Z,33.20
2023-04-17T04:13:23.884Z,5.70
2023-04-17T04:15:57.306Z,1.00
2023-04-17T04:18:28.096Z,1.00
2023-04-17T04:20:56.656Z,1.00
2023-04-17T04:23:33.796Z,1.00
2023-04-17T04:26:02.726Z,1.00
2023-04-17T04:28:53.651Z,1.00
2023-04-17T04:31:30.717Z,1.00
2023-04-17T04:34:01.402Z,1.00
2023-04-17T04:36:30.316Z,1.00
2023-04-17T04:39:30.107Z,1.00
2023-04-17T04:42:06.220Z,1.00
2023-04-17T04:44:48.352Z,1.00
2023-04-17T04:47:20.093Z,1.00
2023-04-17T04:49:51.023Z,1.00
2023-04-17T04:52:22.006Z,1.00
2023-04-17T04:54:52.668Z,1.00
2023-04-17T04:57:20.909Z,99.90
2023-04-17T04:59:52.629Z,99.90
2023-04-17T05:02:28.917Z,99.90
2023-04-17T05:04:57.597Z,99.90
2023-04-17T05:07:26.469Z,99.90
2023-04-17T05:09:55.793Z,99.90
2023-04-17T05:12:24.633Z,99.90
2023-04-17T05:14:54.279Z,99.90
2023-04-17T05:17:22.561Z,26.90
2023-04-17T05:19:51.277Z,1.00
2023-04-17T05:22:21.756Z,1.00
2023-04-17T05:25:03.137Z,1.00
2023-04-17T05:27:31.458Z,1.00
2023-04-17T05:30:02.732Z,1.00
2023-04-17T05:32:32.201Z,99.90
2023-04-17T05:35:06.526Z,99.90
2023-04-17T05:37:34.892Z,99.90
2023-04-17T05:40:03.628Z,5.50
2023-04-17T05:42:31.853Z,1.00
2023-04-17T05:45:00.344Z,99.90
2023-04-17T05:47:30.082Z,1.00
2023-04-17T05:49:59.910Z,57.00
2023-04-17T05:52:30.383Z,1.00
2023-04-17T05:54:58.951Z,1.00
2023-04-17T05:57:27.258Z,42.10
2023-04-17T05:59:55.729Z,99.90
2023-04-17T06:02:24.127Z,1.00
2023-04-17T06:04:54.074Z,99.90
2023-04-17T06:07:23.494Z,1.00
2023-04-17T06:09:51.743Z,99.90
2023-04-17T06:12:22.169Z,1.00
2023-04-17T06:14:50.451Z,99.90
2023-04-17T06:17:23.601Z,1.00
2023-04-17T06:19:53.270Z,1.00
2023-04-17T06:22:21.746Z,99.90
2023-04-17T06:24:50.043Z,99.90
2023-04-17T06:27:18.572Z,99.90
2023-04-17T06:29:47.076Z,1.00
2023-04-17T06:32:15.998Z,1.00
2023-04-17T06:34:58.508Z,1.00
2023-04-17T06:37:41.103Z,1.00
2023-04-17T06:40:13.466Z,1.00
2023-04-17T06:42:42.051Z,1.00
2023-04-17T06:45:14.488Z,1.00
2023-04-17T06:47:43.546Z,1.00
2023-04-17T06:50:12.109Z,1.00
2023-04-17T06:52:41.786Z,99.90
2023-04-17T06:55:10.782Z,1.00
2023-04-17T06:57:39.350Z,1.00
2023-04-17T07:00:08.785Z,1.00
2023-04-17T07:02:37.239Z,6.90
2023-04-17T07:05:07.648Z,30.70
2023-04-17T07:07:36.490Z,1.00
2023-04-17T07:10:07.295Z,1.00
2023-04-17T07:12:35.525Z,99.90
2023-04-17T07:15:03.863Z,55.20
2023-04-17T07:17:32.139Z,1.00
2023-04-17T07:20:00.431Z,1.00
2023-04-17T07:22:28.882Z,1.00
2023-04-17T07:24:57.170Z,1.00
2023-04-17T07:27:26.789Z,1.00
2023-04-17T07:29:55.694Z,99.90
2023-04-17T07:32:25.517Z,99.90
2023-04-17T07:34:55.393Z,99.90
2023-04-17T07:37:24.996Z,99.90
2023-04-17T07:39:54.422Z,99.90
2023-04-17T07:42:22.906Z,1.00
2023-04-17T07:44:52.699Z,1.00
2023-04-17T07:47:21.287Z,1.00
2023-04-17T07:49:50.392Z,1.00
2023-04-17T07:52:18.842Z,1.00
2023-04-17T07:54:47.214Z,1.00
2023-04-17T07:57:18.203Z,99.90
2023-04-17T07:59:48.157Z,99.90
2023-04-17T08:02:18.687Z,1.00
2023-04-17T08:04:48.603Z,1.00
2023-04-17T08:07:18.305Z,1.00
2023-04-17T08:09:46.581Z,1.00
2023-04-17T08:12:14.767Z,1.00
2023-04-17T08:14:43.934Z,1.00
2023-04-17T08:17:15.262Z,1.00
2023-04-17T08:19:45.088Z,1.00
2023-04-17T08:22:15.747Z,5.20
2023-04-17T08:24:44.339Z,1.00
2023-04-17T08:27:13.748Z,1.00
2023-04-17T08:29:42.047Z,99.90
2023-04-17T08:32:14.646Z,1.00
2023-04-17T08:34:46.921Z,1.00
2023-04-17T08:37:15.575Z,1.00
2023-04-17T08:40:09.335Z,99.90
2023-04-17T08:42:42.646Z,47.70
2023-04-17T08:45:12.707Z,1.00
2023-04-17T08:47:42.374Z,99.90
2023-04-17T08:50:15.610Z,99.90
2023-04-17T08:52:45.201Z,99.90
2023-04-17T08:55:15.921Z,99.90
2023-04-17T08:57:58.150Z,1.00
2023-04-17T09:00:28.431Z,1.00
2023-04-17T09:03:00.091Z,1.00
2023-04-17T09:05:35.896Z,1.00
2023-04-17T09:08:10.724Z,1.00
2023-04-17T09:10:40.451Z,1.00
2023-04-17T09:13:10.038Z,1.00
2023-04-17T09:15:38.691Z,1.00
2023-04-17T09:18:07.140Z,1.00
2023-04-17T09:20:50.356Z,1.00
2023-04-17T09:23:19.004Z,1.00
2023-04-17T09:25:47.348Z,1.00
2023-04-17T09:28:16.720Z,1.00
2023-04-17T09:30:44.933Z,1.00
2023-04-17T09:33:13.517Z,1.00
2023-04-17T09:35:43.284Z,1.00
2023-04-17T09:38:12.028Z,1.00
2023-04-17T09:40:41.774Z,1.00
2023-04-17T09:43:11.643Z,1.00
2023-04-17T09:45:42.783Z,1.00
2023-04-17T09:48:13.218Z,1.00
2023-04-17T09:50:42.799Z,1.00
2023-04-17T09:53:11.524Z,1.00
2023-04-17T09:55:43.575Z,1.00
2023-04-17T09:58:12.325Z,1.00
2023-04-17T10:00:42.781Z,1.00
2023-04-17T10:03:11.533Z,1.00
2023-04-17T10:05:40.134Z,1.00
2023-04-17T10:08:10.068Z,1.00
2023-04-17T10:10:38.351Z,1.00
2023-04-17T10:13:12.576Z,1.00
2023-04-17T10:15:41.211Z,1.00
2023-04-17T10:18:24.458Z,1.00
2023-04-17T10:20:55.390Z,1.00
2023-04-17T10:23:32.533Z,1.00
2023-04-17T10:26:47.265Z,1.00
2023-04-17T10:29:15.604Z,1.00
2023-04-17T10:32:15.474Z,1.00
2023-04-17T10:34:44.088Z,1.00
2023-04-17T10:37:15.516Z,1.00
2023-04-17T10:39:56.924Z,1.00
2023-04-17T10:42:26.704Z,1.00
2023-04-17T10:45:01.394Z,1.00
2023-04-17T10:47:34.734Z,1.00
2023-04-17T10:50:05.525Z,99.90
2023-04-17T10:52:39.897Z,99.90
2023-04-17T10:55:11.191Z,99.90
2023-04-17T10:58:13.957Z,99.90
2023-04-17T11:00:52.484Z,99.90
2023-04-17T11:03:24.085Z,99.90
2023-04-17T11:05:52.589Z,99.90
2023-04-17T11:08:21.253Z,99.90
2023-04-17T11:10:59.467Z,99.90
2023-04-17T11:13:32.513Z,99.90
2023-04-17T11:16:02.466Z,99.90
2023-04-17T11:18:31.008Z,99.90
2023-04-17T11:21:03.263Z,99.90
2023-04-17T11:23:34.130Z,99.90
2023-04-17T11:26:03.921Z,99.90
2023-04-17T11:28:32.526Z,99.90
2023-04-17T11:31:04.047Z,99.90
2023-04-17T11:33:38.305Z,99.90
2023-04-17T11:36:07.819Z,99.90
2023-04-17T11:38:36.035Z,99.90
2023-04-17T11:41:09.984Z,1.00
2023-04-17T11:43:40.649Z,99.90
2023-04-17T11:46:08.920Z,99.90
2023-04-17T11:48:37.811Z,99.90
2023-04-17T11:51:07.221Z,99.90
2023-04-17T11:53:37.073Z,99.90
2023-04-17T11:56:21.183Z,99.90
2023-04-17T11:58:51.186Z,99.90
2023-04-17T12:01:20.976Z,99.90
2023-04-17T12:03:49.900Z,99.90
2023-04-17T12:06:18.632Z,99.90
2023-04-17T12:08:50.291Z,99.90
2023-04-17T12:11:29.734Z,99.90
2023-04-17T12:13:58.728Z,99.90
2023-04-17T12:16:29.229Z,99.90
2023-04-17T12:18:58.074Z,99.90
2023-04-17T12:21:26.453Z,99.90
2023-04-17T12:23:54.631Z,99.90
2023-04-17T12:26:25.305Z,99.90
2023-04-17T12:28:53.593Z,99.90
2023-04-17T12:31:21.854Z,99.90
2023-04-17T12:33:50.147Z,99.90
2023-04-17T12:36:19.000Z,99.90
2023-04-17T12:38:47.464Z,99.90
2023-04-17T12:41:15.723Z,99.90
2023-04-17T12:43:45.392Z,99.90
2023-04-17T12:46:15.221Z,99.90
2023-04-17T12:48:44.878Z,99.90
2023-04-17T12:51:13.271Z,99.90
2023-04-17T12:53:41.705Z,99.90
2023-04-17T12:56:10.454Z,99.90
2023-04-17T12:58:38.732Z,99.90
2023-04-17T13:01:08.567Z,99.90
2023-04-17T13:03:37.295Z,99.90
2023-04-17T13:06:08.067Z,99.90
2023-04-17T13:08:36.521Z,99.90
2023-04-17T13:11:05.089Z,99.90
2023-04-17T13:13:33.302Z,99.90
2023-04-17T13:16:03.166Z,99.90
2023-04-17T13:18:33.162Z,99.90
2023-04-17T13:21:01.679Z,99.90
2023-04-17T13:23:30.105Z,99.90
2023-04-17T13:25:58.384Z,99.90
2023-04-17T13:28:26.834Z,99.90
2023-04-17T13:30:55.271Z,99.90
2023-04-17T13:33:23.591Z,99.90
2023-04-17T13:35:54.008Z,99.90
2023-04-17T13:38:22.288Z,99.90
2023-04-17T13:40:50.569Z,99.90
2023-04-17T13:43:18.813Z,99.90
2023-04-17T13:45:47.076Z,99.90
2023-04-17T13:48:15.414Z,99.90
2023-04-17T13:50:43.683Z,99.90
2023-04-17T13:53:13.645Z,99.90
2023-04-17T13:55:41.947Z,99.90
2023-04-17T13:58:12.957Z,99.90
2023-04-17T14:00:41.157Z,99.90
2023-04-17T14:03:13.965Z,99.90
2023-04-17T14:05:42.613Z,99.90
2023-04-17T14:08:13.638Z,99.90
2023-04-17T14:10:42.009Z,99.90
2023-04-17T14:13:10.396Z,99.90
2023-04-17T14:15:40.408Z,99.90
2023-04-17T14:18:09.840Z,99.90
2023-04-17T14:20:38.197Z,99.90
2023-04-17T14:23:06.609Z,99.90
2023-04-17T14:25:36.306Z,99.90
2023-04-17T14:28:04.738Z,99.90
2023-04-17T14:30:32.901Z,99.90
2023-04-17T14:33:01.152Z,99.90
2023-04-17T14:35:29.510Z,99.90
2023-04-17T14:37:57.724Z,99.90
2023-04-17T14:40:25.982Z,99.90
2023-04-17T14:42:55.610Z,99.90
2023-04-17T14:45:24.027Z,99.90
2023-04-17T14:47:52.275Z,99.90
2023-04-17T14:50:23.899Z,99.90
2023-04-17T14:52:55.803Z,99.90
2023-04-17T14:55:24.350Z,99.90
2023-04-17T14:57:53.834Z,99.90
2023-04-17T15:00:24.080Z,99.90
2023-04-17T15:02:52.800Z,99.90
2023-04-17T15:05:22.558Z,99.90
2023-04-17T15:07:50.986Z,99.90
2023-04-17T15:10:19.486Z,99.90
2023-04-17T15:12:47.727Z,99.90
2023-04-17T15:15:15.998Z,99.90
2023-04-17T15:17:45.604Z,99.90
2023-04-17T15:20:14.029Z,99.90
2023-04-17T15:22:42.245Z,99.90
2023-04-17T15:25:10.913Z,99.90
2023-04-17T15:27:39.120Z,99.90
2023-04-17T15:30:09.320Z,99.90
2023-04-17T15:32:37.723Z,99.90
2023-04-17T15:35:08.096Z,99.90
2023-04-17T15:37:37.927Z,99.90
2023-04-17T15:40:07.304Z,99.90
2023-04-17T15:42:36.867Z,99.90
2023-04-17T15:45:06.336Z,99.90
2023-04-17T15:47:34.587Z,99.90
2023-04-17T15:50:02.828Z,99.90
2023-04-17T15:52:32.436Z,99.90
2023-04-17T15:55:00.679Z,99.90
2023-04-17T15:57:28.957Z,99.90
2023-04-17T15:59:57.444Z,99.90
2023-04-17T16:02:26.098Z,99.90
2023-04-17T16:04:54.375Z,99.90
2023-04-17T16:07:22.631Z,99.90
2023-04-17T16:09:52.434Z,99.90
2023-04-17T16:12:20.886Z,99.90
2023-04-17T16:14:49.336Z,99.90
2023-04-17T16:17:18.476Z,99.90
2023-04-17T16:19:48.376Z,99.90
2023-04-17T16:22:19.302Z,99.90
2023-04-17T16:24:47.561Z,99.90
2023-04-17T16:27:17.192Z,99.90
2023-04-17T16:29:45.833Z,99.90
2023-04-17T16:32:14.861Z,99.90
2023-04-17T16:34:43.230Z,99.90
2023-04-17T16:37:11.545Z,99.90
2023-04-17T16:39:39.960Z,99.90
2023-04-17T16:42:08.342Z,99.90
2023-04-17T16:44:38.160Z,99.90
2023-04-17T16:47:13.360Z,99.90
2023-04-17T16:49:42.100Z,99.90
2023-04-17T16:52:10.655Z,99.90
2023-04-17T16:54:38.873Z,99.90
2023-04-17T16:57:07.349Z,99.90
2023-04-17T16:59:37.020Z,99.90
2023-04-17T17:02:05.426Z,99.90
2023-04-17T17:04:33.865Z,99.90
2023-04-17T17:07:02.455Z,99.90
2023-04-17T17:09:30.801Z,99.90
2023-04-17T17:11:59.113Z,99.90
2023-04-17T17:14:27.332Z,99.90
2023-04-17T17:16:57.049Z,99.90
2023-04-17T17:19:25.508Z,99.90
2023-04-17T17:21:55.186Z,99.90
2023-04-17T17:24:23.453Z,99.90
2023-04-17T17:26:51.690Z,99.90
2023-04-17T17:29:20.018Z,99.90
2023-04-17T17:31:50.616Z,99.90
2023-04-17T17:34:26.641Z,99.90
2023-04-17T17:36:55.739Z,99.90
2023-04-17T17:39:24.115Z,99.90
2023-04-17T17:41:52.503Z,99.90
2023-04-17T17:44:20.864Z,99.90
2023-04-17T17:46:49.206Z,99.90
2023-04-17T17:49:17.560Z,99.90
2023-04-17T17:51:47.215Z,99.90
2023-04-17T17:54:15.512Z,99.90
2023-04-17T17:56:43.789Z,99.90
2023-04-17T17:59:12.756Z,1.00
2023-04-17T18:01:41.451Z,1.00
2023-04-17T18:04:12.423Z,1.00
2023-04-17T18:06:41.133Z,1.00
2023-04-17T18:09:11.183Z,1.00
2023-04-17T18:11:42.627Z,1.00
2023-04-17T18:14:11.039Z,1.00
2023-04-17T18:16:39.406Z,1.00
2023-04-17T18:19:07.688Z,1.00
2023-04-17T18:21:36.148Z,1.00
2023-04-17T18:24:04.645Z,1.00
2023-04-17T18:26:34.609Z,1.00
2023-04-17T18:29:04.211Z,1.00
2023-04-17T18:31:35.024Z,1.00
2023-04-17T18:34:03.487Z,1.00
2023-04-17T18:36:31.923Z,1.00
2023-04-17T18:39:00.128Z,1.00
2023-04-17T18:41:28.404Z,1.00
2023-04-17T18:43:57.984Z,1.00
2023-04-17T18:46:30.536Z,1.00
2023-04-17T18:48:58.962Z,1.00
2023-04-17T18:51:27.520Z,1.00
2023-04-17T18:53:55.843Z,1.00
2023-04-17T18:56:24.913Z,1.00
2023-04-17T18:58:53.173Z,1.00
2023-04-17T19:01:22.951Z,1.00
2023-04-17T19:03:53.081Z,1.00
2023-04-17T19:06:21.365Z,1.00
2023-04-17T19:08:49.553Z,1.00
2023-04-17T19:11:17.939Z,1.00
2023-04-17T19:13:46.387Z,1.00
2023-04-17T19:16:14.582Z,1.00
2023-04-17T19:18:44.235Z,1.00
2023-04-17T19:21:12.533Z,1.00
2023-04-17T19:23:40.792Z,91.40
2023-04-17T19:26:09.364Z,91.60
2023-04-17T19:28:37.792Z,95.70
2023-04-17T19:31:06.381Z,99.90
2023-04-17T19:33:35.013Z,99.90
2023-04-17T19:36:04.751Z,99.90
2023-04-17T19:38:33.260Z,99.90
2023-04-17T19:41:14.681Z,99.90
2023-04-17T19:43:43.503Z,99.90
2023-04-17T19:46:12.075Z,99.90
2023-04-17T19:48:42.240Z,99.90
2023-04-17T19:51:12.662Z,99.90
2023-04-17T19:53:45.447Z,99.90
2023-04-17T19:56:14.748Z,99.90
2023-04-17T19:58:44.224Z,99.90
2023-04-17T20:01:12.581Z,99.90
2023-04-17T20:03:42.286Z,1.00
2023-04-17T20:06:13.956Z,1.00
2023-04-17T20:08:42.214Z,1.00
2023-04-17T20:11:12.125Z,1.00
2023-04-17T20:13:40.728Z,1.00
2023-04-17T20:16:09.391Z,99.90
2023-04-17T20:18:38.062Z,99.90
2023-04-17T20:21:07.185Z,99.90
2023-04-17T20:23:36.892Z,99.90
2023-04-17T20:26:05.433Z,99.90
2023-04-17T20:28:33.728Z,1.00
2023-04-17T20:31:02.049Z,1.00
2023-04-17T20:33:30.387Z,1.00
2023-04-17T20:35:58.811Z,1.00
2023-04-17T20:38:27.044Z,99.90
2023-04-17T20:40:56.789Z,1.00
2023-04-17T20:43:25.224Z,1.00
2023-04-17T20:45:53.570Z,99.90
2023-04-17T20:48:22.021Z,99.90
2023-04-17T20:50:50.280Z,1.00
2023-04-17T20:53:18.761Z,1.00
2023-04-17T20:55:47.551Z,1.00
2023-04-17T20:58:17.112Z,1.00
2023-04-17T21:00:58.279Z,1.00
2023-04-17T21:03:31.130Z,1.00
2023-04-17T21:05:59.544Z,36.20
2023-04-17T21:08:28.852Z,29.70
2023-04-17T21:10:57.092Z,26.90
2023-04-17T21:13:26.821Z,99.90
2023-04-17T21:15:55.118Z,99.90
2023-04-17T21:18:23.562Z,99.90
2023-04-17T21:20:51.956Z,99.90
2023-04-17T21:23:20.563Z,99.90
2023-04-17T21:25:51.752Z,99.90
2023-04-17T21:28:20.107Z,99.90
2023-04-17T21:30:49.972Z,99.90
2023-04-17T21:33:18.348Z,17.70
2023-04-17T21:35:46.810Z,28.80
2023-04-17T21:38:15.180Z,1.60
2023-04-17T21:40:50.915Z,1.00
2023-04-17T21:43:19.804Z,16.30
2023-04-17T21:45:50.026Z,1.00
2023-04-17T21:48:18.647Z,1.00
2023-04-17T21:50:47.015Z,20.20
2023-04-17T21:53:15.233Z,99.90
2023-04-17T21:55:43.395Z,99.90
2023-04-17T21:58:11.687Z,1.00
2023-04-17T22:00:39.923Z,37.50
2023-04-17T22:03:09.777Z,1.00
2023-04-17T22:05:38.036Z,1.00
2023-04-17T22:08:06.511Z,99.90
2023-04-17T22:10:34.841Z,1.00
2023-04-17T22:13:03.492Z,1.00
2023-04-17T22:15:32.038Z,1.00
2023-04-17T22:18:00.369Z,1.00
2023-04-17T22:20:30.140Z,99.90
2023-04-17T22:22:58.407Z,1.00
2023-04-17T22:25:26.729Z,99.90
2023-04-17T22:27:54.989Z,1.00
2023-04-17T22:30:23.466Z,99.90
2023-04-17T22:32:52.004Z,1.00
2023-04-17T22:35:20.281Z,73.10
2023-04-17T22:37:49.984Z,99.90
2023-04-17T22:40:18.424Z,1.00
2023-04-17T22:43:02.031Z,1.00
2023-04-17T22:45:50.453Z,1.00
2023-04-17T22:48:18.986Z,1.00
2023-04-17T22:50:47.287Z,1.00
2023-04-17T22:53:16.972Z,1.00
2023-04-17T22:55:45.297Z,1.00
2023-04-17T22:58:13.733Z,1.00
2023-04-17T23:00:41.908Z,1.00
2023-04-17T23:03:10.321Z,1.00
2023-04-17T23:05:38.654Z,13.90
2023-04-17T23:08:06.983Z,28.60
2023-04-17T23:11:30.306Z,38.10
2023-04-17T23:14:03.055Z,44.90
2023-04-17T23:16:31.670Z,56.00
2023-04-17T23:18:59.954Z,80.50
2023-04-17T23:21:28.278Z,99.80
2023-04-17T23:23:56.641Z,99.90
2023-04-17T23:26:25.833Z,99.90
2023-04-17T23:28:54.125Z,99.90
2023-04-17T23:31:23.761Z,99.90
2023-04-17T23:33:51.943Z,99.90
2023-04-17T23:36:20.115Z,99.90
2023-04-17T23:38:48.391Z,99.90
2023-04-17T23:41:16.661Z,99.90
2023-04-17T23:43:44.816Z,99.90
2023-04-17T23:46:13.066Z,99.90
2023-04-17T23:48:42.681Z,99.90
2023-04-17T23:51:10.928Z,99.90
2023-04-17T23:53:39.235Z,99.90
2023-04-17T23:56:07.902Z,99.90
2023-04-17T23:58:36.100Z,99.90
